Time,TemperatureF,DewpointF,PressureIn,WindDirection,WindDirectionDegrees,WindSpeedMPH,WindSpeedGustMPH,Humidity,HourlyPrecipIn,Conditions,Clouds,dailyrainin,SoftwareType,DateUTC
2013-03-20 00:00:00,61.5,32.5,30.07,SW,225,2.5,2.5,33,0.00,,,0.00,tws,2013-03-20 07:00:00,
2013-03-20 00:10:00,61.2,32.5,30.07,NE,45,2.2,3.0,33,0.00,,,0.00,tws,2013-03-20 07:10:00,
2013-03-20 00:20:00,60.7,32.7,30.07,NW,315,1.4,2.5,34,0.00,,,0.00,tws,2013-03-20 07:20:00,
2013-03-20 00:30:00,60.1,32.7,30.07,NW,315,2.5,3.0,35,0.00,,,0.00,tws,2013-03-20 07:30:00,
2013-03-20 00:40:00,59.5,32.8,30.08,NW,315,2.8,3.2,36,0.00,,,0.00,tws,2013-03-20 07:40:00,
2013-03-20 00:50:00,59.0,32.4,30.07,SW,225,0.5,2.0,36,0.00,,,0.00,tws,2013-03-20 07:50:00,
2013-03-20 01:00:00,58.5,32.5,30.07,NW,315,2.5,3.7,37,0.00,,,0.00,tws,2013-03-20 08:00:00,
2013-03-20 01:10:00,58.1,32.3,30.07,WNW,292,3.1,3.6,37,0.00,,,0.00,tws,2013-03-20 08:10:00,
2013-03-20 01:20:00,58.0,32.2,30.07,NW,315,3.0,3.4,37,0.00,,,0.00,tws,2013-03-20 08:20:00,
2013-03-20 01:30:00,57.9,32.5,30.08,SW,225,2.1,3.5,37,0.00,,,0.00,tws,2013-03-20 08:30:00,
2013-03-20 01:40:00,57.6,32.7,30.08,NW,315,2.6,4.2,38,0.00,,,0.00,tws,2013-03-20 08:40:00,
2013-03-20 01:50:00,57.2,32.6,30.08,NW,315,2.3,3.1,39,0.00,,,0.00,tws,2013-03-20 08:50:00,
2013-03-20 02:00:00,56.9,32.7,30.08,NW,315,2.8,3.5,39,0.00,,,0.00,tws,2013-03-20 09:00:00,
2013-03-20 02:10:00,56.8,33.2,30.07,NW,315,3.5,4.0,40,0.00,,,0.00,tws,2013-03-20 09:10:00,
2013-03-20 02:20:00,56.6,33.3,30.07,NNW,337,4.9,5.5,41,0.00,,,0.00,tws,2013-03-20 09:20:00,
2013-03-20 02:30:00,56.6,33.3,30.06,NW,315,5.1,5.8,40,0.00,,,0.00,tws,2013-03-20 09:30:00,
2013-03-20 02:40:00,56.8,32.8,30.06,West,270,4.9,6.2,39,0.00,,,0.00,tws,2013-03-20 09:40:00,
2013-03-20 02:50:00,57.0,32.9,30.06,NW,315,5.0,5.8,39,0.00,,,0.00,tws,2013-03-20 09:50:00,
2013-03-20 03:00:00,57.2,32.7,30.05,NW,315,4.5,5.4,39,0.00,,,0.00,tws,2013-03-20 10:00:00,
2013-03-20 03:10:00,57.3,32.5,30.05,NW,315,3.6,4.6,38,0.00,,,0.00,tws,2013-03-20 10:10:00,
2013-03-20 03:30:00,56.9,32.9,30.05,NNW,337,1.2,1.8,39,0.00,,,0.00,tws,2013-03-20 10:30:00,
2013-03-20 03:40:00,56.4,33.0,30.06,NW,315,1.9,2.7,40,0.00,,,0.00,tws,2013-03-20 10:40:00,
2013-03-20 03:50:00,55.8,32.8,30.06,North,0,2.5,3.4,41,0.00,,,0.00,tws,2013-03-20 10:50:00,
2013-03-20 04:00:00,55.4,32.7,30.05,North,0,1.8,2.4,41,0.00,,,0.00,tws,2013-03-20 11:00:00,
2013-03-20 04:10:00,55.0,32.8,30.05,NW,315,2.4,3.0,42,0.00,,,0.00,tws,2013-03-20 11:10:00,
2013-03-20 04:20:00,54.7,33.1,30.06,NW,315,2.3,3.0,43,0.00,,,0.00,tws,2013-03-20 11:20:00,
2013-03-20 04:30:00,54.5,32.9,30.05,NW,315,3.0,4.3,43,0.00,,,0.00,tws,2013-03-20 11:30:00,
2013-03-20 04:40:00,54.3,32.9,30.05,NW,315,3.3,4.1,43,0.00,,,0.00,tws,2013-03-20 11:40:00,
2013-03-20 04:50:00,54.4,33.0,30.05,NW,315,2.6,3.3,43,0.00,,,0.00,tws,2013-03-20 11:50:00,
2013-03-20 05:00:00,54.5,33.1,30.05,NW,315,1.5,2.7,44,0.00,,,0.00,tws,2013-03-20 12:00:00,
2013-03-20 05:10:00,54.4,33.3,30.05,WNW,292,0.2,1.1,44,0.00,,,0.00,tws,2013-03-20 12:10:00,
2013-03-20 05:20:00,54.2,33.7,30.06,NW,315,1.4,2.9,45,0.00,,,0.00,tws,2013-03-20 12:20:00,
2013-03-20 05:30:00,54.0,33.4,30.05,East,90,0.1,0.9,45,0.00,,,0.00,tws,2013-03-20 12:30:00,
2013-03-20 05:40:00,53.8,33.7,30.05,East,90,0.0,0.0,46,0.00,,,0.00,tws,2013-03-20 12:40:00,
2013-03-20 05:50:00,53.4,33.8,30.06,NW,315,0.0,0.0,46,0.00,,,0.00,tws,2013-03-20 12:50:00,
2013-03-20 06:00:00,52.9,34.0,30.05,NW,315,0.6,2.2,48,0.00,,,0.00,tws,2013-03-20 13:00:00,
2013-03-20 06:10:00,52.5,34.1,30.06,NW,315,0.8,2.4,49,0.00,,,0.00,tws,2013-03-20 13:10:00,
2013-03-20 06:20:00,52.2,34.3,30.07,West,270,1.9,4.4,50,0.00,,,0.00,tws,2013-03-20 13:20:00,
2013-03-20 06:30:00,52.0,34.0,30.06,NW,315,3.4,4.1,49,0.00,,,0.00,tws,2013-03-20 13:30:00,
2013-03-20 06:40:00,52.0,34.0,30.06,NW,315,3.2,3.6,49,0.00,,,0.00,tws,2013-03-20 13:40:00,
2013-03-20 06:50:00,52.0,34.1,30.06,NW,315,4.2,4.8,50,0.00,,,0.00,tws,2013-03-20 13:50:00,
2013-03-20 07:00:00,52.1,34.5,30.05,NNW,337,2.9,3.9,50,0.00,,,0.00,tws,2013-03-20 14:00:00,
2013-03-20 07:10:00,52.2,34.9,30.06,NW,315,3.0,3.5,51,0.00,,,0.00,tws,2013-03-20 14:10:00,
2013-03-20 07:20:00,52.5,35.2,30.05,NW,315,2.6,3.3,51,0.00,,,0.00,tws,2013-03-20 14:20:00,
2013-03-20 07:30:00,52.9,35.3,30.07,NW,315,4.4,5.1,50,0.00,,,0.00,tws,2013-03-20 14:30:00,
2013-03-20 07:40:00,53.9,35.4,30.06,NW,315,4.7,5.8,49,0.00,,,0.00,tws,2013-03-20 14:40:00,
2013-03-20 07:50:00,55.1,36.0,30.07,North,0,3.1,4.7,48,0.00,,,0.00,tws,2013-03-20 14:50:00,
2013-03-20 08:00:00,56.3,36.6,30.05,North,0,3.0,4.3,47,0.00,,,0.00,tws,2013-03-20 15:00:00,
2013-03-20 08:10:00,57.4,37.0,30.05,NE,45,2.5,3.7,46,0.00,,,0.00,tws,2013-03-20 15:10:00,
2013-03-20 08:20:00,58.2,37.7,30.06,NE,45,0.2,1.0,46,0.00,,,0.00,tws,2013-03-20 15:20:00,
2013-03-20 08:30:00,59.1,38.3,30.06,East,90,0.2,0.9,45,0.00,,,0.00,tws,2013-03-20 15:30:00,
2013-03-20 08:40:00,60.8,39.4,30.05,ESE,112,2.0,2.5,44,0.00,,,0.00,tws,2013-03-20 15:40:00,
2013-03-20 08:50:00,62.8,39.7,30.05,NE,45,1.2,2.6,42,0.00,,,0.00,tws,2013-03-20 15:50:00,
2013-03-20 09:00:00,63.7,39.7,30.05,East,90,1.7,2.2,40,0.00,,,0.00,tws,2013-03-20 16:00:00,
2013-03-20 09:10:00,64.1,39.8,30.05,NNE,22,1.7,2.6,40,0.00,,,0.00,tws,2013-03-20 16:10:00,
2013-03-20 09:20:00,64.6,39.1,30.05,NE,45,2.1,2.5,38,0.00,,,0.00,tws,2013-03-20 16:20:00,
2013-03-20 09:30:00,65.0,38.7,30.05,East,90,1.1,2.1,37,0.00,,,0.00,tws,2013-03-20 16:30:00,
2013-03-20 09:40:00,65.2,38.2,30.05,East,90,1.6,2.6,36,0.00,,,0.00,tws,2013-03-20 16:40:00,
2013-03-20 09:50:00,65.4,38.6,30.04,North,0,0.9,1.9,36,0.00,,,0.00,tws,2013-03-20 16:50:00,
2013-03-20 10:00:00,66.0,39.2,30.03,East,90,0.7,2.1,36,0.00,,,0.00,tws,2013-03-20 17:00:00,
2013-03-20 10:10:00,66.9,39.3,30.03,East,90,0.4,1.9,35,0.00,,,0.00,tws,2013-03-20 17:10:00,
2013-03-20 10:20:00,68.4,39.0,30.03,NNE,22,2.5,3.4,33,0.00,,,0.00,tws,2013-03-20 17:20:00,
2013-03-20 10:30:00,70.0,39.1,30.03,South,180,1.8,2.8,31,0.00,,,0.00,tws,2013-03-20 17:30:00,
2013-03-20 10:40:00,71.3,38.7,30.05,SW,225,1.6,2.9,30,0.00,,,0.00,tws,2013-03-20 17:40:00,
2013-03-20 10:50:00,72.0,38.0,30.05,NW,315,2.5,3.2,28,0.00,,,0.00,tws,2013-03-20 17:50:00,
2013-03-20 11:00:00,72.5,38.2,30.04,South,180,2.8,4.7,28,0.00,,,0.00,tws,2013-03-20 18:00:00,
2013-03-20 11:10:00,73.2,38.8,30.04,North,0,1.3,2.0,28,0.00,,,0.00,tws,2013-03-20 18:10:00,
2013-03-20 11:20:00,73.9,39.2,30.05,West,270,1.3,3.3,28,0.00,,,0.00,tws,2013-03-20 18:20:00,
2013-03-20 11:30:00,74.8,40.1,30.05,South,180,2.6,3.5,28,0.00,,,0.00,tws,2013-03-20 18:30:00,
2013-03-20 11:40:00,75.4,39.8,30.04,NW,315,2.5,4.0,27,0.00,,,0.00,tws,2013-03-20 18:40:00,
2013-03-20 11:50:00,76.0,39.4,30.04,WNW,292,1.9,2.6,26,0.00,,,0.00,tws,2013-03-20 18:50:00,
2013-03-20 12:00:00,76.5,39.8,30.03,South,180,1.4,2.6,26,0.00,,,0.00,tws,2013-03-20 19:00:00,
2013-03-20 12:10:00,77.9,39.7,30.03,ENE,67,1.9,3.6,25,0.00,,,0.00,tws,2013-03-20 19:10:00,
2013-03-20 12:20:00,78.7,39.3,30.03,SE,135,3.6,5.5,23,0.00,,,0.00,tws,2013-03-20 19:20:00,
2013-03-20 12:30:00,78.7,39.2,30.03,ENE,67,1.6,3.8,23,0.00,,,0.00,tws,2013-03-20 19:30:00,
2013-03-20 12:40:00,78.7,39.2,30.02,ENE,67,3.5,5.6,23,0.00,,,0.00,tws,2013-03-20 19:40:00,
2013-03-20 12:50:00,78.7,39.2,30.01,NE,45,2.6,4.3,23,0.00,,,0.00,tws,2013-03-20 19:50:00,
2013-03-20 13:00:00,78.7,38.4,30.01,SE,135,3.3,4.1,23,0.00,,,0.00,tws,2013-03-20 20:00:00,
2013-03-20 13:10:00,79.0,38.4,30.01,South,180,3.2,5.2,22,0.00,,,0.00,tws,2013-03-20 20:10:00,
2013-03-20 13:20:00,79.3,36.6,30.01,SE,135,4.3,6.4,21,0.00,,,0.00,tws,2013-03-20 20:20:00,
2013-03-20 13:30:00,79.6,37.1,30.00,SE,135,4.8,9.3,21,0.00,,,0.00,tws,2013-03-20 20:30:00,
2013-03-20 13:40:00,79.5,37.0,30.00,South,180,5.3,8.5,21,0.00,,,0.00,tws,2013-03-20 20:40:00,
2013-03-20 13:50:00,78.9,36.1,29.99,SE,135,4.4,6.3,20,0.00,,,0.00,tws,2013-03-20 20:50:00,
2013-03-20 14:00:00,78.6,36.3,29.98,SSE,157,3.7,7.1,21,0.00,,,0.00,tws,2013-03-20 21:00:00,
2013-03-20 14:10:00,78.6,36.4,29.98,ESE,112,4.1,5.8,21,0.00,,,0.00,tws,2013-03-20 21:10:00,
2013-03-20 14:20:00,78.7,36.3,29.98,SSE,157,4.6,6.2,21,0.00,,,0.00,tws,2013-03-20 21:20:00,
2013-03-20 14:30:00,79.0,36.2,29.98,SE,135,5.8,7.9,21,0.00,,,0.00,tws,2013-03-20 21:30:00,
2013-03-20 14:40:00,79.4,37.4,29.98,ESE,112,3.0,4.6,21,0.00,,,0.00,tws,2013-03-20 21:40:00,
2013-03-20 14:50:00,80.1,37.0,29.97,SW,225,5.5,7.3,20,0.00,,,0.00,tws,2013-03-20 21:50:00,
2013-03-20 15:00:00,80.6,36.9,29.97,SSE,157,4.7,7.5,20,0.00,,,0.00,tws,2013-03-20 22:00:00,
2013-03-20 15:10:00,80.9,37.2,29.96,SE,135,3.0,5.5,20,0.00,,,0.00,tws,2013-03-20 22:10:00,
2013-03-20 15:20:00,81.4,37.8,29.96,SW,225,5.5,8.0,20,0.00,,,0.00,tws,2013-03-20 22:20:00,
2013-03-20 15:30:00,81.4,36.6,29.96,South,180,5.3,6.9,19,0.00,,,0.00,tws,2013-03-20 22:30:00,
2013-03-20 15:40:00,81.3,36.3,29.95,SE,135,4.5,7.0,19,0.00,,,0.00,tws,2013-03-20 22:40:00,
2013-03-20 15:50:00,81.1,36.9,29.95,South,180,4.9,8.8,20,0.00,,,0.00,tws,2013-03-20 22:50:00,
2013-03-20 16:00:00,81.7,37.4,29.94,SW,225,3.9,6.9,20,0.00,,,0.00,tws,2013-03-20 23:00:00,
2013-03-20 16:10:00,81.5,36.9,29.94,SW,225,2.9,6.4,19,0.00,,,0.00,tws,2013-03-20 23:10:00,
2013-03-20 16:20:00,81.3,37.5,29.94,SSW,202,3.1,6.3,20,0.00,,,0.00,tws,2013-03-20 23:20:00,
2013-03-20 16:30:00,81.5,36.5,29.94,West,270,4.9,6.9,19,0.00,,,0.00,tws,2013-03-20 23:30:00,
2013-03-20 16:40:00,81.2,36.5,29.93,SSE,157,2.0,4.2,19,0.00,,,0.00,tws,2013-03-20 23:40:00,
2013-03-20 16:50:00,80.9,36.3,29.93,SE,135,4.2,6.8,19,0.00,,,0.00,tws,2013-03-20 23:50:00,
2013-03-20 17:00:00,80.5,36.2,29.93,South,180,4.3,6.7,19,0.00,,,0.00,tws,2013-03-21 00:00:00,
2013-03-20 17:10:00,79.8,36.3,29.93,SSE,157,4.3,6.4,20,0.00,,,0.00,tws,2013-03-21 00:10:00,
2013-03-20 17:20:00,79.2,36.2,29.93,South,180,3.4,5.1,20,0.00,,,0.00,tws,2013-03-21 00:20:00,
2013-03-20 17:30:00,78.7,35.9,29.93,WSW,247,4.2,5.2,21,0.00,,,0.00,tws,2013-03-21 00:30:00,
2013-03-20 17:40:00,78.2,35.8,29.93,SW,225,5.0,6.4,21,0.00,,,0.00,tws,2013-03-21 00:40:00,
2013-03-20 17:50:00,77.6,35.4,29.94,SW,225,5.2,6.8,21,0.00,,,0.00,tws,2013-03-21 00:50:00,
2013-03-20 18:00:00,77.2,35.5,29.93,SW,225,5.4,7.3,21,0.00,,,0.00,tws,2013-03-21 01:00:00,
2013-03-20 18:10:00,76.8,35.0,29.93,SW,225,5.5,8.2,21,0.00,,,0.00,tws,2013-03-21 01:10:00,
2013-03-20 18:20:00,76.2,34.9,29.93,South,180,4.6,5.4,21,0.00,,,0.00,tws,2013-03-21 01:20:00,
2013-03-20 18:30:00,75.6,34.9,29.93,SW,225,3.9,4.7,22,0.00,,,0.00,tws,2013-03-21 01:30:00,
2013-03-20 18:40:00,75.0,35.1,29.93,SW,225,2.4,3.4,23,0.00,,,0.00,tws,2013-03-21 01:40:00,
2013-03-20 18:50:00,74.4,36.2,29.93,SW,225,0.9,1.8,24,0.00,,,0.00,tws,2013-03-21 01:50:00,
2013-03-20 19:00:00,73.6,37.1,29.91,NW,315,0.8,1.7,26,0.00,,,0.00,tws,2013-03-21 02:00:00,
2013-03-20 19:10:00,72.7,36.9,29.91,NW,315,0.0,0.0,26,0.00,,,0.00,tws,2013-03-21 02:10:00,
2013-03-20 19:20:00,71.9,36.8,29.91,NNW,337,0.5,1.4,27,0.00,,,0.00,tws,2013-03-21 02:20:00,
2013-03-20 19:30:00,71.2,36.9,29.92,NW,315,1.6,2.6,28,0.00,,,0.00,tws,2013-03-21 02:30:00,
2013-03-20 19:40:00,70.7,36.9,29.91,NW,315,1.7,2.2,28,0.00,,,0.00,tws,2013-03-21 02:40:00,
2013-03-20 19:50:00,70.3,36.5,29.91,NW,315,1.2,2.5,28,0.00,,,0.00,tws,2013-03-21 02:50:00,
2013-03-20 20:00:00,70.0,36.8,29.91,SW,225,1.3,2.4,29,0.00,,,0.00,tws,2013-03-21 03:00:00,
2013-03-20 20:20:00,69.3,35.6,29.93,NW,315,2.4,3.1,28,0.00,,,0.00,tws,2013-03-21 03:20:00,
2013-03-20 20:30:00,69.0,35.5,29.92,NW,315,3.0,3.6,28,0.00,,,0.00,tws,2013-03-21 03:30:00,
2013-03-20 20:40:00,68.6,36.1,29.93,NW,315,3.2,3.7,29,0.00,,,0.00,tws,2013-03-21 03:40:00,
2013-03-20 20:50:00,68.2,36.4,29.92,NW,315,3.2,3.5,30,0.00,,,0.00,tws,2013-03-21 03:50:00,
2013-03-20 21:00:00,67.7,36.3,29.91,WNW,292,3.4,4.3,31,0.00,,,0.00,tws,2013-03-21 04:00:00,
2013-03-20 21:10:00,67.2,36.1,29.92,West,270,2.8,3.2,31,0.00,,,0.00,tws,2013-03-21 04:10:00,
2013-03-20 21:20:00,66.7,35.7,29.93,WNW,292,2.6,3.2,31,0.00,,,0.00,tws,2013-03-21 04:20:00,
2013-03-20 21:30:00,66.2,35.9,29.93,NW,315,2.4,2.9,32,0.00,,,0.00,tws,2013-03-21 04:30:00,
2013-03-20 21:40:00,65.8,36.1,29.92,NW,315,3.3,4.3,32,0.00,,,0.00,tws,2013-03-21 04:40:00,
2013-03-20 21:50:00,65.3,36.1,29.93,NW,315,3.6,4.3,33,0.00,,,0.00,tws,2013-03-21 04:50:00,
2013-03-20 22:00:00,64.9,35.6,29.93,NW,315,3.3,3.7,33,0.00,,,0.00,tws,2013-03-21 05:00:00,
2013-03-20 22:10:00,64.7,35.1,29.93,West,270,3.2,3.4,32,0.00,,,0.00,tws,2013-03-21 05:10:00,
2013-03-20 22:20:00,64.5,35.2,29.93,NW,315,3.0,3.4,33,0.00,,,0.00,tws,2013-03-21 05:20:00,
2013-03-20 22:30:00,64.2,35.2,29.92,WNW,292,2.3,3.2,33,0.00,,,0.00,tws,2013-03-21 05:30:00,
2013-03-20 22:40:00,63.9,35.5,29.92,NW,315,2.4,3.4,34,0.00,,,0.00,tws,2013-03-21 05:40:00,
2013-03-20 22:50:00,63.6,35.7,29.92,NW,315,2.1,2.8,35,0.00,,,0.00,tws,2013-03-21 05:50:00,
2013-03-20 23:00:00,63.3,35.7,29.91,NW,315,2.1,2.6,35,0.00,,,0.00,tws,2013-03-21 06:00:00,
2013-03-20 23:10:00,63.0,35.6,29.91,NNW,337,2.9,3.7,35,0.00,,,0.00,tws,2013-03-21 06:10:00,
2013-03-20 23:20:00,62.6,36.0,29.91,NW,315,4.8,5.6,36,0.00,,,0.00,tws,2013-03-21 06:20:00,
2013-03-20 23:30:00,62.2,35.6,29.91,NW,315,4.6,5.5,36,0.00,,,0.00,tws,2013-03-21 06:30:00,
2013-03-20 23:40:00,61.8,35.5,29.92,WNW,292,1.9,3.0,37,0.00,,,0.00,tws,2013-03-21 06:40:00,
2013-03-20 23:50:00,61.5,35.9,29.91,WNW,292,2.5,3.4,38,0.00,,,0.00,tws,2013-03-21 06:50:00,